sensor_id;sensor_type;location;lat;lon;timestamp;temperature;humidity
1415;DHT22;702;49.466;11.086;2023-02-13T00:00:37;4.10;96.10
1415;DHT22;702;49.466;11.086;2023-02-13T00:03:08;4.00;96.20
1415;DHT22;702;49.466;11.086;2023-02-13T00:05:36;4.00;96.60
1415;DHT22;702;49.466;11.086;2023-02-13T00:08:04;3.90;96.80
1415;DHT22;702;49.466;11.086;2023-02-13T00:10:32;3.80;97.40
1415;DHT22;702;49.466;11.086;2023-02-13T00:12:59;3.70;97.80
1415;DHT22;702;49.466;11.086;2023-02-13T00:15:26;3.60;98.80
1415;DHT22;702;49.466;11.086;2023-02-13T00:17:54;3.60;99.30
1415;DHT22;702;49.466;11.086;2023-02-13T00:20:22;3.60;99.90
1415;DHT22;702;49.466;11.086;2023-02-13T00:22:50;3.60;99.90
1415;DHT22;702;49.466;11.086;2023-02-13T00:25:18;3.60;99.90
1415;DHT22;702;49.466;11.086;2023-02-13T00:27:45;3.60;99.90
1415;DHT22;702;49.466;11.086;2023-02-13T00:30:15;3.50;99.90
1415;DHT22;702;49.466;11.086;2023-02-13T00:32:42;3.50;99.90
1415;DHT22;702;49.466;11.086;2023-02-13T00:35:10;3.40;99.90
1415;DHT22;702;49.466;11.086;2023-02-13T00:37:38;3.40;99.90
1415;DHT22;702;49.466;11.086;2023-02-13T00:40:07;3.30;99.90
1415;DHT22;702;49.466;11.086;2023-02-13T00:42:35;3.30;99.90
1415;DHT22;702;49.466;11.086;2023-02-13T00:45:03;3.20;99.90
1415;DHT22;702;49.466;11.086;2023-02-13T00:47:30;3.20;99.90
1415;DHT22;702;49.466;11.086;2023-02-13T00:49:58;3.20;99.90
1415;DHT22;702;49.466;11.086;2023-02-13T00:52:25;3.10;99.90
1415;DHT22;702;49.466;11.086;2023-02-13T00:54:54;3.00;99.90
1415;DHT22;702;49.466;11.086;2023-02-13T00:57:21;2.80;99.90
1415;DHT22;702;49.466;11.086;2023-02-13T00:59:48;2.70;99.90
1415;DHT22;702;49.466;11.086;2023-02-13T01:02:16;2.60;99.90
1415;DHT22;702;49.466;11.086;2023-02-13T01:04:44;2.50;99.90
1415;DHT22;702;49.466;11.086;2023-02-13T01:07:11;2.60;99.90
1415;DHT22;702;49.466;11.086;2023-02-13T01:09:38;2.50;99.90
1415;DHT22;702;49.466;11.086;2023-02-13T01:12:07;2.40;99.90
1415;DHT22;702;49.466;11.086;2023-02-13T01:14:35;2.30;99.90
1415;DHT22;702;49.466;11.086;2023-02-13T01:17:02;2.40;99.90
1415;DHT22;702;49.466;11.086;2023-02-13T01:19:30;2.40;99.90
1415;DHT22;702;49.466;11.086;2023-02-13T01:21:58;2.20;99.90
1415;DHT22;702;49.466;11.086;2023-02-13T01:24:25;2.20;99.90
1415;DHT22;702;49.466;11.086;2023-02-13T01:26:54;2.10;99.90
1415;DHT22;702;49.466;11.086;2023-02-13T01:29:25;2.00;99.90
1415;DHT22;702;49.466;11.086;2023-02-13T01:31:52;1.90;99.90
1415;DHT22;702;49.466;11.086;2023-02-13T01:34:20;1.80;99.90
1415;DHT22;702;49.466;11.086;2023-02-13T01:36:49;1.80;99.90
1415;DHT22;702;49.466;11.086;2023-02-13T01:39:16;1.70;99.90
1415;DHT22;702;49.466;11.086;2023-02-13T01:41:44;1.60;99.90
1415;DHT22;702;49.466;11.086;2023-02-13T01:44:46;1.60;99.90
1415;DHT22;702;49.466;11.086;2023-02-13T01:47:19;1.70;99.90
1415;DHT22;702;49.466;11.086;2023-02-13T01:49:55;1.80;99.90
1415;DHT22;702;49.466;11.086;2023-02-13T01:52:28;1.80;99.90
1415;DHT22;702;49.466;11.086;2023-02-13T01:54:56;1.90;99.90
1415;DHT22;702;49.466;11.086;2023-02-13T01:57:25;1.90;99.90
1415;DHT22;702;49.466;11.086;2023-02-13T01:59:59;1.80;99.90
1415;DHT22;702;49.466;11.086;2023-02-13T02:02:36;1.70;99.90
1415;DHT22;702;49.466;11.086;2023-02-13T02:05:06;1.50;99.90
1415;DHT22;702;49.466;11.086;2023-02-13T02:07:35;1.60;99.90
1415;DHT22;702;49.466;11.086;2023-02-13T02:10:08;1.50;99.90
1415;DHT22;702;49.466;11.086;2023-02-13T02:12:42;1.50;99.90
1415;DHT22;702;49.466;11.086;2023-02-13T02:15:13;1.50;99.90
1415;DHT22;702;49.466;11.086;2023-02-13T02:17:40;1.40;99.90
1415;DHT22;702;49.466;11.086;2023-02-13T02:20:18;1.40;99.90
1415;DHT22;702;49.466;11.086;2023-02-13T02:23:22;1.40;99.90
1415;DHT22;702;49.466;11.086;2023-02-13T02:35:35;1.40;99.90
1415;DHT22;702;49.466;11.086;2023-02-13T02:38:25;1.30;99.90
1415;DHT22;702;49.466;11.086;2023-02-13T02:41:08;1.30;99.90
1415;DHT22;702;49.466;11.086;2023-02-13T02:43:47;1.30;99.90
1415;DHT22;702;49.466;11.086;2023-02-13T02:46:26;1.20;99.90
1415;DHT22;702;49.466;11.086;2023-02-13T02:49:03;1.10;99.90
1415;DHT22;702;49.466;11.086;2023-02-13T02:51:55;1.00;99.90
1415;DHT22;702;49.466;11.086;2023-02-13T02:54:33;0.90;99.90
1415;DHT22;702;49.466;11.086;2023-02-13T02:57:22;0.80;99.90
1415;DHT22;702;49.466;11.086;2023-02-13T02:59:52;0.60;99.90
1415;DHT22;702;49.466;11.086;2023-02-13T03:02:38;0.70;99.90
1415;DHT22;702;49.466;11.086;2023-02-13T03:05:28;0.80;99.90
1415;DHT22;702;49.466;11.086;2023-02-13T03:08:15;0.70;99.90
1415;DHT22;702;49.466;11.086;2023-02-13T03:11:04;0.50;99.90
1415;DHT22;702;49.466;11.086;2023-02-13T03:13:49;0.40;99.90
1415;DHT22;702;49.466;11.086;2023-02-13T03:16:20;0.40;99.90
1415;DHT22;702;49.466;11.086;2023-02-13T03:19:03;0.40;99.90
1415;DHT22;702;49.466;11.086;2023-02-13T03:21:55;0.50;99.90
1415;DHT22;702;49.466;11.086;2023-02-13T03:24:48;0.50;99.90
1415;DHT22;702;49.466;11.086;2023-02-13T03:27:30;0.60;99.90
1415;DHT22;702;49.466;11.086;2023-02-13T03:30:25;0.60;99.90
1415;DHT22;702;49.466;11.086;2023-02-13T03:33:11;0.60;99.90
1415;DHT22;702;49.466;11.086;2023-02-13T03:35:51;0.60;99.90
1415;DHT22;702;49.466;11.086;2023-02-13T03:38:49;0.50;99.90
1415;DHT22;702;49.466;11.086;2023-02-13T03:41:23;0.60;99.90
1415;DHT22;702;49.466;11.086;2023-02-13T03:44:00;0.50;99.90
1415;DHT22;702;49.466;11.086;2023-02-13T03:46:36;0.50;99.90
1415;DHT22;702;49.466;11.086;2023-02-13T03:49:09;0.50;99.90
1415;DHT22;702;49.466;11.086;2023-02-13T03:51:58;0.50;99.90
1415;DHT22;702;49.466;11.086;2023-02-13T03:54:39;0.30;99.90
1415;DHT22;702;49.466;11.086;2023-02-13T03:57:28;0.20;99.90
1415;DHT22;702;49.466;11.086;2023-02-13T04:00:17;0.30;99.90
1415;DHT22;702;49.466;11.086;2023-02-13T04:02:52;0.30;99.90
1415;DHT22;702;49.466;11.086;2023-02-13T04:05:24;0.20;99.90
1415;DHT22;702;49.466;11.086;2023-02-13T04:07:55;0.30;99.90
1415;DHT22;702;49.466;11.086;2023-02-13T04:10:26;0.20;99.90
1415;DHT22;702;49.466;11.086;2023-02-13T04:13:04;0.20;99.90
1415;DHT22;702;49.466;11.086;2023-02-13T04:15:40;0.20;99.90
1415;DHT22;702;49.466;11.086;2023-02-13T04:18:13;0.10;99.90
1415;DHT22;702;49.466;11.086;2023-02-13T04:20:43;0.10;99.90
1415;DHT22;702;49.466;11.086;2023-02-13T04:23:11;0.10;99.90
1415;DHT22;702;49.466;11.086;2023-02-13T04:25:43;0.00;99.90
1415;DHT22;702;49.466;11.086;2023-02-13T04:28:12;0.00;99.90
1415;DHT22;702;49.466;11.086;2023-02-13T04:30:40;0.00;99.90
1415;DHT22;702;49.466;11.086;2023-02-13T04:33:09;-0.10;99.90
1415;DHT22;702;49.466;11.086;2023-02-13T04:35:36;0.00;99.90
1415;DHT22;702;49.466;11.086;2023-02-13T04:38:04;-0.10;99.90
1415;DHT22;702;49.466;11.086;2023-02-13T04:40:32;-0.10;99.90
1415;DHT22;702;49.466;11.086;2023-02-13T04:43:01;-0.20;99.90
1415;DHT22;702;49.466;11.086;2023-02-13T04:45:29;-0.20;99.90
1415;DHT22;702;49.466;11.086;2023-02-13T04:47:57;-0.20;99.90
1415;DHT22;702;49.466;11.086;2023-02-13T04:50:25;-0.20;99.90
1415;DHT22;702;49.466;11.086;2023-02-13T04:52:53;-0.20;99.90
1415;DHT22;702;49.466;11.086;2023-02-13T04:55:21;-0.20;99.90
1415;DHT22;702;49.466;11.086;2023-02-13T04:57:51;-0.20;99.90
1415;DHT22;702;49.466;11.086;2023-02-13T05:00:21;-0.20;99.90
1415;DHT22;702;49.466;11.086;2023-02-13T05:02:51;-0.20;99.90
1415;DHT22;702;49.466;11.086;2023-02-13T05:05:20;-0.20;99.90
1415;DHT22;702;49.466;11.086;2023-02-13T05:07:47;-0.10;99.90
1415;DHT22;702;49.466;11.086;2023-02-13T05:10:16;-0.20;99.90
1415;DHT22;702;49.466;11.086;2023-02-13T05:12:44;-0.30;99.90
1415;DHT22;702;49.466;11.086;2023-02-13T05:15:11;-0.30;99.90
1415;DHT22;702;49.466;11.086;2023-02-13T05:17:42;-0.30;99.90
1415;DHT22;702;49.466;11.086;2023-02-13T05:20:11;-0.30;99.90
1415;DHT22;702;49.466;11.086;2023-02-13T05:22:43;-0.30;99.90
1415;DHT22;702;49.466;11.086;2023-02-13T05:25:28;-0.30;99.90
1415;DHT22;702;49.466;11.086;2023-02-13T05:27:56;-0.30;99.90
1415;DHT22;702;49.466;11.086;2023-02-13T05:30:23;-0.30;99.90
1415;DHT22;702;49.466;11.086;2023-02-13T05:32:53;-0.30;99.90
1415;DHT22;702;49.466;11.086;2023-02-13T05:35:21;-0.20;99.90
1415;DHT22;702;49.466;11.086;2023-02-13T05:37:48;-0.30;99.90
1415;DHT22;702;49.466;11.086;2023-02-13T05:40:16;-0.30;99.90
1415;DHT22;702;49.466;11.086;2023-02-13T05:42:44;-0.20;99.90
1415;DHT22;702;49.466;11.086;2023-02-13T05:45:11;-0.30;99.90
1415;DHT22;702;49.466;11.086;2023-02-13T05:47:38;-0.30;99.90
1415;DHT22;702;49.466;11.086;2023-02-13T05:50:08;-0.30;99.90
1415;DHT22;702;49.466;11.086;2023-02-13T05:52:35;-0.20;99.90
1415;DHT22;702;49.466;11.086;2023-02-13T05:55:03;-0.30;99.90
1415;DHT22;702;49.466;11.086;2023-02-13T05:57:30;-0.10;99.90
1415;DHT22;702;49.466;11.086;2023-02-13T05:59:57;-0.10;99.90
1415;DHT22;702;49.466;11.086;2023-02-13T06:02:25;-0.20;99.90
1415;DHT22;702;49.466;11.086;2023-02-13T06:04:52;-0.20;99.90
1415;DHT22;702;49.466;11.086;2023-02-13T06:07:20;-0.10;99.90
1415;DHT22;702;49.466;11.086;2023-02-13T06:09:48;-0.20;99.90
1415;DHT22;702;49.466;11.086;2023-02-13T06:12:15;-0.20;99.90
1415;DHT22;702;49.466;11.086;2023-02-13T06:14:42;-0.30;99.90
1415;DHT22;702;49.466;11.086;2023-02-13T06:17:10;-0.30;99.90
1415;DHT22;702;49.466;11.086;2023-02-13T06:19:37;-0.20;99.90
1415;DHT22;702;49.466;11.086;2023-02-13T06:22:04;-0.20;99.90
1415;DHT22;702;49.466;11.086;2023-02-13T06:24:33;-0.20;99.90
1415;DHT22;702;49.466;11.086;2023-02-13T06:27:00;-0.20;99.90
1415;DHT22;702;49.466;11.086;2023-02-13T06:29:27;-0.20;99.90
1415;DHT22;702;49.466;11.086;2023-02-13T06:31:56;-0.20;99.90
1415;DHT22;702;49.466;11.086;2023-02-13T06:34:23;-0.20;99.90
1415;DHT22;702;49.466;11.086;2023-02-13T06:36:51;-0.10;99.90
1415;DHT22;702;49.466;11.086;2023-02-13T06:39:19;-0.10;99.90
1415;DHT22;702;49.466;11.086;2023-02-13T06:41:48;-0.10;99.90
1415;DHT22;702;49.466;11.086;2023-02-13T06:44:16;-0.20;99.90
1415;DHT22;702;49.466;11.086;2023-02-13T06:46:43;-0.20;99.90
1415;DHT22;702;49.466;11.086;2023-02-13T06:49:10;-0.20;99.90
1415;DHT22;702;49.466;11.086;2023-02-13T06:51:37;-0.20;99.90
1415;DHT22;702;49.466;11.086;2023-02-13T06:54:06;-0.10;99.90
1415;DHT22;702;49.466;11.086;2023-02-13T06:56:33;-0.20;99.90
1415;DHT22;702;49.466;11.086;2023-02-13T06:59:02;-0.10;99.90
1415;DHT22;702;49.466;11.086;2023-02-13T07:01:29;-0.10;99.90
1415;DHT22;702;49.466;11.086;2023-02-13T07:03:57;-0.20;99.90
1415;DHT22;702;49.466;11.086;2023-02-13T07:06:24;-0.10;99.90
1415;DHT22;702;49.466;11.086;2023-02-13T07:08:52;-0.10;99.90
1415;DHT22;702;49.466;11.086;2023-02-13T07:11:23;-0.10;99.90
1415;DHT22;702;49.466;11.086;2023-02-13T07:13:51;-0.10;99.90
1415;DHT22;702;49.466;11.086;2023-02-13T07:16:20;0.00;99.90
1415;DHT22;702;49.466;11.086;2023-02-13T07:18:47;0.00;99.90
1415;DHT22;702;49.466;11.086;2023-02-13T07:21:14;0.10;99.90
1415;DHT22;702;49.466;11.086;2023-02-13T07:23:42;0.20;99.90
1415;DHT22;702;49.466;11.086;2023-02-13T07:26:09;0.20;99.90
1415;DHT22;702;49.466;11.086;2023-02-13T07:28:36;0.30;99.90
1415;DHT22;702;49.466;11.086;2023-02-13T07:31:05;0.30;99.90
1415;DHT22;702;49.466;11.086;2023-02-13T07:33:34;0.30;99.90
1415;DHT22;702;49.466;11.086;2023-02-13T07:36:02;0.30;99.90
1415;DHT22;702;49.466;11.086;2023-02-13T07:38:31;0.20;99.90
1415;DHT22;702;49.466;11.086;2023-02-13T07:40:59;0.40;99.90
1415;DHT22;702;49.466;11.086;2023-02-13T07:43:28;0.60;99.90
1415;DHT22;702;49.466;11.086;2023-02-13T07:45:57;0.60;99.90
1415;DHT22;702;49.466;11.086;2023-02-13T07:48:25;0.70;99.90
1415;DHT22;702;49.466;11.086;2023-02-13T07:50:54;0.80;99.90
1415;DHT22;702;49.466;11.086;2023-02-13T07:53:25;0.90;99.90
1415;DHT22;702;49.466;11.086;2023-02-13T07:55:53;1.00;99.90
1415;DHT22;702;49.466;11.086;2023-02-13T07:58:20;1.10;99.90
1415;DHT22;702;49.466;11.086;2023-02-13T08:00:47;1.30;99.90
1415;DHT22;702;49.466;11.086;2023-02-13T08:03:15;1.40;99.90
1415;DHT22;702;49.466;11.086;2023-02-13T08:05:46;1.30;99.90
1415;DHT22;702;49.466;11.086;2023-02-13T08:08:16;1.40;99.90
1415;DHT22;702;49.466;11.086;2023-02-13T08:10:43;1.20;99.90
1415;DHT22;702;49.466;11.086;2023-02-13T08:13:28;1.20;99.90
1415;DHT22;702;49.466;11.086;2023-02-13T08:15:56;1.20;99.90
1415;DHT22;702;49.466;11.086;2023-02-13T08:18:23;1.30;99.90
1415;DHT22;702;49.466;11.086;2023-02-13T08:20:50;1.20;99.90
1415;DHT22;702;49.466;11.086;2023-02-13T08:23:19;1.20;99.90
1415;DHT22;702;49.466;11.086;2023-02-13T08:25:47;1.30;99.90
1415;DHT22;702;49.466;11.086;2023-02-13T08:28:15;1.30;99.90
1415;DHT22;702;49.466;11.086;2023-02-13T08:30:42;1.40;99.90
1415;DHT22;702;49.466;11.086;2023-02-13T08:33:10;1.50;99.90
1415;DHT22;702;49.466;11.086;2023-02-13T08:35:37;1.70;99.90
1415;DHT22;702;49.466;11.086;2023-02-13T08:38:04;1.80;99.90
1415;DHT22;702;49.466;11.086;2023-02-13T08:40:33;1.70;99.90
1415;DHT22;702;49.466;11.086;2023-02-13T08:43:00;1.60;99.90
1415;DHT22;702;49.466;11.086;2023-02-13T08:45:28;1.60;99.90
1415;DHT22;702;49.466;11.086;2023-02-13T08:47:56;1.60;99.90
1415;DHT22;702;49.466;11.086;2023-02-13T08:50:24;1.70;99.90
1415;DHT22;702;49.466;11.086;2023-02-13T08:52:52;1.90;99.90
1415;DHT22;702;49.466;11.086;2023-02-13T08:55:20;1.90;99.90
1415;DHT22;702;49.466;11.086;2023-02-13T08:57:48;1.90;99.90
1415;DHT22;702;49.466;11.086;2023-02-13T09:00:16;1.90;99.90
1415;DHT22;702;49.466;11.086;2023-02-13T09:02:43;2.00;99.90
1415;DHT22;702;49.466;11.086;2023-02-13T09:05:11;2.10;99.60
1415;DHT22;702;49.466;11.086;2023-02-13T09:07:38;2.30;96.90
1415;DHT22;702;49.466;11.086;2023-02-13T09:10:07;2.20;96.10
1415;DHT22;702;49.466;11.086;2023-02-13T09:12:34;2.30;96.10
1415;DHT22;702;49.466;11.086;2023-02-13T09:15:03;2.40;96.10
1415;DHT22;702;49.466;11.086;2023-02-13T09:17:31;2.50;95.70
1415;DHT22;702;49.466;11.086;2023-02-13T09:19:59;2.50;94.30
1415;DHT22;702;49.466;11.086;2023-02-13T09:22:27;2.50;93.80
1415;DHT22;702;49.466;11.086;2023-02-13T09:24:56;2.50;94.50
1415;DHT22;702;49.466;11.086;2023-02-13T09:27:26;2.60;93.80
1415;DHT22;702;49.466;11.086;2023-02-13T09:29:53;2.70;94.00
1415;DHT22;702;49.466;11.086;2023-02-13T09:32:22;2.90;93.70
1415;DHT22;702;49.466;11.086;2023-02-13T09:34:49;3.00;92.80
1415;DHT22;702;49.466;11.086;2023-02-13T09:37:16;3.10;91.80
1415;DHT22;702;49.466;11.086;2023-02-13T09:39:44;3.00;92.30
1415;DHT22;702;49.466;11.086;2023-02-13T09:42:17;3.00;92.70
1415;DHT22;702;49.466;11.086;2023-02-13T09:44:47;3.00;93.20
1415;DHT22;702;49.466;11.086;2023-02-13T09:47:26;3.10;93.20
1415;DHT22;702;49.466;11.086;2023-02-13T09:50:01;3.10;92.70
1415;DHT22;702;49.466;11.086;2023-02-13T09:52:32;3.10;92.40
1415;DHT22;702;49.466;11.086;2023-02-13T09:55:00;3.00;93.20
1415;DHT22;702;49.466;11.086;2023-02-13T09:57:33;3.10;93.00
1415;DHT22;702;49.466;11.086;2023-02-13T10:00:05;3.20;92.80
1415;DHT22;702;49.466;11.086;2023-02-13T10:02:52;3.20;92.50
1415;DHT22;702;49.466;11.086;2023-02-13T10:05:41;3.20;92.50
1415;DHT22;702;49.466;11.086;2023-02-13T10:08:32;3.30;92.50
1415;DHT22;702;49.466;11.086;2023-02-13T10:11:08;3.20;92.40
1415;DHT22;702;49.466;11.086;2023-02-13T10:13:54;3.30;92.80
1415;DHT22;702;49.466;11.086;2023-02-13T10:16:28;3.40;91.80
1415;DHT22;702;49.466;11.086;2023-02-13T10:19:02;3.30;92.00
1415;DHT22;702;49.466;11.086;2023-02-13T10:21:35;3.30;92.90
1415;DHT22;702;49.466;11.086;2023-02-13T10:24:11;3.40;92.50
1415;DHT22;702;49.466;11.086;2023-02-13T10:26:42;3.40;91.90
1415;DHT22;702;49.466;11.086;2023-02-13T10:29:14;3.40;93.00
1415;DHT22;702;49.466;11.086;2023-02-13T10:32:07;3.60;92.70
1415;DHT22;702;49.466;11.086;2023-02-13T10:34:43;3.60;91.80
1415;DHT22;702;49.466;11.086;2023-02-13T10:37:13;3.80;91.60
1415;DHT22;702;49.466;11.086;2023-02-13T10:39:45;3.80;91.50
1415;DHT22;702;49.466;11.086;2023-02-13T10:42:21;3.90;91.10
1415;DHT22;702;49.466;11.086;2023-02-13T10:45:02;4.00;91.00
1415;DHT22;702;49.466;11.086;2023-02-13T10:47:51;4.20;90.40
1415;DHT22;702;49.466;11.086;2023-02-13T10:50:29;4.40;88.70
1415;DHT22;702;49.466;11.086;2023-02-13T10:53:08;4.50;89.40
1415;DHT22;702;49.466;11.086;2023-02-13T10:55:59;4.70;88.70
1415;DHT22;702;49.466;11.086;2023-02-13T10:58:44;4.80;87.90
1415;DHT22;702;49.466;11.086;2023-02-13T11:01:27;5.00;87.50
1415;DHT22;702;49.466;11.086;2023-02-13T11:04:06;5.20;86.00
1415;DHT22;702;49.466;11.086;2023-02-13T11:06:38;5.30;85.10
1415;DHT22;702;49.466;11.086;2023-02-13T11:09:09;5.00;85.60
1415;DHT22;702;49.466;11.086;2023-02-13T11:11:40;5.10;86.40
1415;DHT22;702;49.466;11.086;2023-02-13T11:14:11;5.20;85.40
1415;DHT22;702;49.466;11.086;2023-02-13T11:16:46;5.20;85.50
1415;DHT22;702;49.466;11.086;2023-02-13T11:19:21;5.20;85.10
1415;DHT22;702;49.466;11.086;2023-02-13T11:21:58;5.20;85.70
1415;DHT22;702;49.466;11.086;2023-02-13T11:24:29;5.30;85.40
1415;DHT22;702;49.466;11.086;2023-02-13T11:27:01;5.30;85.00
1415;DHT22;702;49.466;11.086;2023-02-13T11:29:35;5.50;85.30
1415;DHT22;702;49.466;11.086;2023-02-13T11:32:17;5.50;84.70
1415;DHT22;702;49.466;11.086;2023-02-13T11:34:46;5.60;84.40
1415;DHT22;702;49.466;11.086;2023-02-13T11:37:25;5.60;84.10
1415;DHT22;702;49.466;11.086;2023-02-13T11:39:54;5.70;84.60
1415;DHT22;702;49.466;11.086;2023-02-13T11:42:28;5.70;84.20
1415;DHT22;702;49.466;11.086;2023-02-13T11:44:59;5.90;84.30
1415;DHT22;702;49.466;11.086;2023-02-13T11:47:36;6.00;83.70
1415;DHT22;702;49.466;11.086;2023-02-13T11:50:19;6.10;83.30
1415;DHT22;702;49.466;11.086;2023-02-13T11:53:08;6.20;83.50
1415;DHT22;702;49.466;11.086;2023-02-13T11:55:44;6.30;83.10
1415;DHT22;702;49.466;11.086;2023-02-13T11:58:23;6.40;83.10
1415;DHT22;702;49.466;11.086;2023-02-13T12:01:08;6.50;82.80
1415;DHT22;702;49.466;11.086;2023-02-13T12:03:41;6.60;82.60
1415;DHT22;702;49.466;11.086;2023-02-13T12:06:13;6.70;82.60
1415;DHT22;702;49.466;11.086;2023-02-13T12:08:43;6.70;82.50
1415;DHT22;702;49.466;11.086;2023-02-13T12:11:19;6.80;82.60
1415;DHT22;702;49.466;11.086;2023-02-13T12:13:49;6.80;82.20
1415;DHT22;702;49.466;11.086;2023-02-13T12:16:26;6.90;82.30
1415;DHT22;702;49.466;11.086;2023-02-13T12:18:59;6.90;82.10
1415;DHT22;702;49.466;11.086;2023-02-13T12:21:40;7.10;82.10
1415;DHT22;702;49.466;11.086;2023-02-13T12:24:22;7.10;81.60
1415;DHT22;702;49.466;11.086;2023-02-13T12:26:58;7.30;80.50
1415;DHT22;702;49.466;11.086;2023-02-13T12:29:58;7.50;80.30
1415;DHT22;702;49.466;11.086;2023-02-13T12:32:58;7.60;79.80
1415;DHT22;702;49.466;11.086;2023-02-13T12:35:43;7.80;79.60
1415;DHT22;702;49.466;11.086;2023-02-13T12:38:23;7.80;78.80
1415;DHT22;702;49.466;11.086;2023-02-13T12:41:12;8.00;78.30
1415;DHT22;702;49.466;11.086;2023-02-13T12:44:07;8.00;77.70
1415;DHT22;702;49.466;11.086;2023-02-13T12:46:50;8.10;77.00
1415;DHT22;702;49.466;11.086;2023-02-13T12:49:37;8.20;76.40
1415;DHT22;702;49.466;11.086;2023-02-13T12:52:45;8.20;76.70
1415;DHT22;702;49.466;11.086;2023-02-13T12:58:40;8.50;75.70
1415;DHT22;702;49.466;11.086;2023-02-13T13:01:22;8.50;75.50
1415;DHT22;702;49.466;11.086;2023-02-13T13:04:04;8.40;75.30
1415;DHT22;702;49.466;11.086;2023-02-13T13:06:59;8.40;75.00
1415;DHT22;702;49.466;11.086;2023-02-13T13:09:55;8.40;75.40
1415;DHT22;702;49.466;11.086;2023-02-13T13:12:44;8.50;74.70
1415;DHT22;702;49.466;11.086;2023-02-13T13:15:26;8.60;74.30
1415;DHT22;702;49.466;11.086;2023-02-13T13:18:07;8.50;73.90
1415;DHT22;702;49.466;11.086;2023-02-13T13:20:57;8.40;74.10
1415;DHT22;702;49.466;11.086;2023-02-13T13:23:31;8.40;74.20
1415;DHT22;702;49.466;11.086;2023-02-13T13:26:13;8.60;74.70
1415;DHT22;702;49.466;11.086;2023-02-13T13:28:48;8.70;74.10
1415;DHT22;702;49.466;11.086;2023-02-13T13:31:20;8.90;73.90
1415;DHT22;702;49.466;11.086;2023-02-13T13:33:48;9.00;73.70
1415;DHT22;702;49.466;11.086;2023-02-13T13:36:23;9.00;73.40
1415;DHT22;702;49.466;11.086;2023-02-13T13:39:03;9.10;73.30
1415;DHT22;702;49.466;11.086;2023-02-13T13:41:39;9.10;73.10
1415;DHT22;702;49.466;11.086;2023-02-13T13:47:36;9.20;72.30
1415;DHT22;702;49.466;11.086;2023-02-13T13:50:18;9.30;71.70
1415;DHT22;702;49.466;11.086;2023-02-13T13:53:09;9.30;71.20
1415;DHT22;702;49.466;11.086;2023-02-13T13:55:58;9.30;70.90
1415;DHT22;702;49.466;11.086;2023-02-13T13:58:33;9.30;71.20
1415;DHT22;702;49.466;11.086;2023-02-13T14:01:25;9.30;71.00
1415;DHT22;702;49.466;11.086;2023-02-13T14:03:57;9.30;70.90
1415;DHT22;702;49.466;11.086;2023-02-13T14:06:26;9.40;70.90
1415;DHT22;702;49.466;11.086;2023-02-13T14:09:00;9.40;70.80
1415;DHT22;702;49.466;11.086;2023-02-13T14:11:36;9.40;70.60
1415;DHT22;702;49.466;11.086;2023-02-13T14:17:49;9.30;70.40
1415;DHT22;702;49.466;11.086;2023-02-13T14:20:35;9.30;70.20
1415;DHT22;702;49.466;11.086;2023-02-13T14:23:15;9.30;70.20
1415;DHT22;702;49.466;11.086;2023-02-13T14:25:45;9.30;70.20
1415;DHT22;702;49.466;11.086;2023-02-13T14:28:21;9.40;69.80
1415;DHT22;702;49.466;11.086;2023-02-13T14:30:51;9.50;69.40
1415;DHT22;702;49.466;11.086;2023-02-13T14:33:31;9.50;69.50
1415;DHT22;702;49.466;11.086;2023-02-13T14:36:02;9.50;69.20
1415;DHT22;702;49.466;11.086;2023-02-13T14:38:31;9.60;69.10
1415;DHT22;702;49.466;11.086;2023-02-13T14:40:58;9.60;68.80
1415;DHT22;702;49.466;11.086;2023-02-13T14:43:32;9.50;68.80
1415;DHT22;702;49.466;11.086;2023-02-13T14:46:15;9.40;69.00
1415;DHT22;702;49.466;11.086;2023-02-13T14:48:51;9.40;69.50
1415;DHT22;702;49.466;11.086;2023-02-13T14:51:31;9.30;69.20
1415;DHT22;702;49.466;11.086;2023-02-13T14:54:06;9.10;69.20
1415;DHT22;702;49.466;11.086;2023-02-13T14:56:39;9.10;69.50
1415;DHT22;702;49.466;11.086;2023-02-13T14:59:11;9.20;69.40
1415;DHT22;702;49.466;11.086;2023-02-13T15:01:49;9.10;69.60
1415;DHT22;702;49.466;11.086;2023-02-13T15:04:23;9.10;69.90
1415;DHT22;702;49.466;11.086;2023-02-13T15:06:54;9.10;69.70
1415;DHT22;702;49.466;11.086;2023-02-13T15:09:29;9.10;69.60
1415;DHT22;702;49.466;11.086;2023-02-13T15:11:58;9.10;69.60
1415;DHT22;702;49.466;11.086;2023-02-13T15:14:33;9.10;69.90
1415;DHT22;702;49.466;11.086;2023-02-13T15:17:05;9.10;69.90
1415;DHT22;702;49.466;11.086;2023-02-13T15:19:36;9.00;69.50
1415;DHT22;702;49.466;11.086;2023-02-13T15:22:18;9.00;69.70
1415;DHT22;702;49.466;11.086;2023-02-13T15:24:48;9.00;69.70
1415;DHT22;702;49.466;11.086;2023-02-13T15:27:19;9.00;69.80
1415;DHT22;702;49.466;11.086;2023-02-13T15:29:59;9.00;70.60
1415;DHT22;702;49.466;11.086;2023-02-13T15:32:31;8.90;72.20
1415;DHT22;702;49.466;11.086;2023-02-13T15:34:59;8.80;72.80
1415;DHT22;702;49.466;11.086;2023-02-13T15:37:29;8.70;73.10
1415;DHT22;702;49.466;11.086;2023-02-13T15:40:13;8.70;73.50
1415;DHT22;702;49.466;11.086;2023-02-13T15:42:49;8.70;73.10
1415;DHT22;702;49.466;11.086;2023-02-13T15:45:18;8.60;72.20
1415;DHT22;702;49.466;11.086;2023-02-13T15:47:47;8.50;72.20
1415;DHT22;702;49.466;11.086;2023-02-13T15:50:23;8.50;72.30
1415;DHT22;702;49.466;11.086;2023-02-13T15:52:55;8.40;72.50
1415;DHT22;702;49.466;11.086;2023-02-13T15:55:24;8.20;72.90
1415;DHT22;702;49.466;11.086;2023-02-13T15:57:55;8.00;73.30
1415;DHT22;702;49.466;11.086;2023-02-13T16:00:26;7.90;73.60
1415;DHT22;702;49.466;11.086;2023-02-13T16:02:56;7.80;74.10
1415;DHT22;702;49.466;11.086;2023-02-13T16:05:26;7.80;74.60
1415;DHT22;702;49.466;11.086;2023-02-13T16:07:56;7.70;74.60
1415;DHT22;702;49.466;11.086;2023-02-13T16:10:28;7.60;74.60
1415;DHT22;702;49.466;11.086;2023-02-13T16:12:58;7.50;74.90
1415;DHT22;702;49.466;11.086;2023-02-13T16:15:29;7.40;74.90
1415;DHT22;702;49.466;11.086;2023-02-13T16:17:58;7.30;75.30
1415;DHT22;702;49.466;11.086;2023-02-13T16:20:27;7.20;75.50
1415;DHT22;702;49.466;11.086;2023-02-13T16:23:00;7.10;75.70
1415;DHT22;702;49.466;11.086;2023-02-13T16:25:31;7.00;76.00
1415;DHT22;702;49.466;11.086;2023-02-13T16:28:02;6.90;76.50
1415;DHT22;702;49.466;11.086;2023-02-13T16:30:33;6.80;76.90
1415;DHT22;702;49.466;11.086;2023-02-13T16:33:22;6.70;77.00
1415;DHT22;702;49.466;11.086;2023-02-13T16:35:54;6.70;77.20
1415;DHT22;702;49.466;11.086;2023-02-13T16:38:29;6.50;77.60
1415;DHT22;702;49.466;11.086;2023-02-13T16:41:01;6.50;78.00
1415;DHT22;702;49.466;11.086;2023-02-13T16:43:50;6.50;78.10
1415;DHT22;702;49.466;11.086;2023-02-13T16:46:30;6.30;78.40
1415;DHT22;702;49.466;11.086;2023-02-13T16:49:05;6.30;78.60
1415;DHT22;702;49.466;11.086;2023-02-13T16:51:42;6.20;78.70
1415;DHT22;702;49.466;11.086;2023-02-13T16:54:25;6.10;79.10
1415;DHT22;702;49.466;11.086;2023-02-13T16:56:56;6.00;79.40
1415;DHT22;702;49.466;11.086;2023-02-13T16:59:41;5.90;79.70
1415;DHT22;702;49.466;11.086;2023-02-13T17:02:18;5.80;79.90
1415;DHT22;702;49.466;11.086;2023-02-13T17:04:50;5.80;80.10
1415;DHT22;702;49.466;11.086;2023-02-13T17:07:22;5.70;80.50
1415;DHT22;702;49.466;11.086;2023-02-13T17:09:59;5.70;80.50
1415;DHT22;702;49.466;11.086;2023-02-13T17:12:30;5.60;80.60
1415;DHT22;702;49.466;11.086;2023-02-13T17:14:58;5.50;81.30